Flight Track Log - Related Links

Times and Time Zones

All times are in EDT time to prevent confusion due to time zone crossing. See the WEW1540 flight status page for this flight to view local times or setup timezone preferences in your user account.

Time Position Orientation Groundspeed Altitude Reporting Facility
EDT Latitude Longitude Course Direction KTS MPH feet Rate Location/Type
Wed 07:10:57 PM 51.3833 -109.0667 142° Southeast 160 184 9,100  Level Winnipeg Center
Wed 07:11:57 PM 51.3333 -109.0000 140° Southeast 180 207 9,100  Level Winnipeg Center
Wed 07:12:57 PM 51.3000 -108.9667 148° Southeast 190 219 9,100  Level Winnipeg Center
Wed 07:13:57 PM 51.2500 -108.9000 140° Southeast 190 219 9,100  Level Winnipeg Center
Wed 07:14:57 PM 51.2167 -108.8333 129° Southeast 200 230 9,100  Level Winnipeg Center
Wed 07:15:00 PM 51.1161 -108.6814 142° Southeast  Level Estimated
Wed 07:15:57 PM 51.1667 -108.8000 157° South 190 219 9,100  Level Winnipeg Center
Wed 07:16:00 PM 51.0796 -108.6362 142° Southeast  Level FlightAware Approximate
Wed 07:16:57 PM 51.1167 -108.7333 140° Southeast 210 242 9,100  Level Winnipeg Center
Wed 07:17:57 PM 51.0833 -108.7000 148° Southeast 190 219 9,100  Level Winnipeg Center
Wed 07:18:57 PM 51.0333 -108.6333 140° Southeast 190 219 9,100  Level Winnipeg Center
Wed 07:19:57 PM 50.9833 -108.5833 148° Southeast 190 219 9,100  Level Winnipeg Center
Wed 07:20:57 PM 50.9500 -108.5500 148° Southeast 190 219 9,100  Level Winnipeg Center
Wed 07:21:57 PM 50.9167 -108.5000 137° Southeast 190 219 9,100  Level Winnipeg Center
Wed 07:23:00 PM 50.8807 -108.4484 138° Southeast  Level FlightAware Approximate
Wed 07:30:00 PM 50.6400 -108.1064 138° Southeast  Level FlightAware Approximate
Wed 07:31:00 PM 50.6055 -108.0578 138° Southeast  Level FlightAware Approximate
Wed 07:32:00 PM 50.5682 -108.0123 143° Southeast  Level FlightAware Approximate
Wed 07:33:00 PM 50.5312 -107.9685 143° Southeast  Level FlightAware Approximate
Wed 07:34:00 PM 50.4943 -107.9248 143° Southeast  Level FlightAware Approximate
Wed 07:35:00 PM 50.4573 -107.8812 143° Southeast  Level FlightAware Approximate
Wed 07:36:00 PM 50.4203 -107.8377 143° Southeast  Level FlightAware Approximate
Wed 07:37:00 PM 50.3829 -107.7952 144° Southeast  Level FlightAware Approximate
Wed 07:38:00 PM 50.3453 -107.7529 144° Southeast  Level FlightAware Approximate
Wed 07:39:00 PM 50.3078 -107.7107 144° Southeast  Level FlightAware Approximate
Wed 07:40:00 PM 50.2919 -107.6906 144° Southeast  Level Estimated
Wed 07:41:00 PM 50.2919 -107.6906 144° Southeast  Level Estimated
Wed 07:42:00 PM 50.2919 -107.6906 144° Southeast  Level Estimated
Wed 07:43:00 PM 50.2919 -107.6906 144° Southeast  Level Estimated
Wed 07:44:00 PM 50.2919 -107.6906 144° Southeast  Level Estimated
Wed 07:45:00 PM 50.2919 -107.6906 144° Southeast  Level Estimated

Login

Don't have an account? Register now (free) for customized features, flight alerts, and more!